Aviation Digital Data Service (ADDS)

Output produced by METARs form (1302 UTC 10 July 2020)
found at http://www.aviationweather.gov/metar/data/
 
KMKT 101256Z AUTO 32005KT 10SM CLR 19/17 A3000 RMK AO2 SLP157 T01940172
KMKT 101120Z 1012/1112 32006KT P6SM SCT250 
     FM101600 30010G16KT P6SM FEW060 
     FM110900 VRB04KT P6SM SCT060 BKN080 
     PROB30 1109/1112 TSRA BKN060CB
       
KRST 101254Z 32007KT 10SM CLR 20/17 A2997 RMK AO2 SLP145 T02000172
KRST 101126Z 1012/1112 30007KT P6SM FEW250 
     FM101900 31012G19KT P6SM FEW250 
     FM110100 29006KT P6SM SCT120
       
KMSP 101253Z 32006KT 10SM FEW250 22/17 A2996 RMK AO2 SLP141 T02220167
KMSP 101120Z 1012/1118 32004KT P6SM FEW250 
     FM101500 30010G16KT P6SM FEW050 SCT250 
     FM110600 30006KT P6SM SCT060 BKN090